Time;durP1;ratioP1;P1;durP2;ratioP2;P2;SDS_P1;SDS_P2;PMS_P1;PMS_P2;Temp;Humidity;BMP_temperature;BMP_pressure;BME280_temperature;BME280_humidity;BME280_pressure;Samples;Min_cycle;Max_cycle;Signal;HPM_P1;HPM_P2
2022/01/03 00:01:36;;;;;;;0.60;0.60;;;18.30;41.10;;;21.93;27.57;100074.28;5061592;28;20050;-78
2022/01/03 00:04:02;;;;;;;0.55;0.55;;;18.30;41.10;;;21.94;27.55;100073.34;5078172;28;20455;-78
2022/01/03 00:06:29;;;;;;;0.40;0.40;;;18.30;41.00;;;21.94;27.50;100075.16;5095169;28;20055;-77
2022/01/03 00:08:56;;;;;;;0.73;0.73;;;18.30;41.00;;;21.94;27.54;100078.66;5094921;28;20391;-78
2022/01/03 00:11:22;;;;;;;0.60;0.60;;;18.30;41.00;;;21.93;27.61;100066.31;5095275;28;20039;-78
2022/01/03 00:13:50;;;;;;;0.60;0.60;;;18.30;41.10;;;21.94;27.67;100069.84;5061336;28;20403;-78
2022/01/03 00:16:16;;;;;;;0.60;0.60;;;18.30;41.10;;;21.93;27.67;100058.31;5078659;28;20083;-78
2022/01/03 00:18:42;;;;;;;0.40;0.40;;;18.30;41.10;;;21.93;27.55;100061.00;5078124;28;20052;-77
2022/01/03 00:21:15;;;;;;;0.60;0.60;;;18.30;41.10;;;21.91;27.67;100054.94;5094593;28;20052;-78
2022/01/03 00:24:06;;;;;;;0.85;0.60;;;18.30;41.20;;;21.94;27.57;100040.56;5077998;28;20043;-77
2022/01/03 00:26:35;;;;;;;0.50;0.50;;;18.30;41.10;;;21.93;27.48;100039.69;5094837;28;20054;-77
2022/01/03 00:29:15;;;;;;;0.65;0.65;;;18.30;41.10;;;21.91;27.70;100035.47;5093397;28;20529;-78
2022/01/03 00:31:42;;;;;;;0.60;0.60;;;18.30;41.10;;;21.95;27.62;100045.78;5075772;28;20052;-78
2022/01/03 00:34:12;;;;;;;0.50;0.50;;;18.30;41.10;;;21.89;27.57;100032.09;5094679;28;20075;-77
2022/01/03 00:36:38;;;;;;;0.60;0.60;;;18.30;41.10;;;21.95;27.45;100027.13;5078081;28;20059;-78
2022/01/03 00:39:07;;;;;;;0.63;0.63;;;18.30;41.10;;;21.94;27.51;100029.91;5093758;28;20043;-78
2022/01/03 00:41:37;;;;;;;0.52;0.52;;;18.30;41.10;;;21.93;27.56;100015.75;5077808;28;20044;-78
2022/01/03 00:44:03;;;;;;;0.50;0.50;;;18.30;41.10;;;21.91;27.51;100017.69;5094813;28;20047;-77
2022/01/03 00:46:31;;;;;;;0.50;0.50;;;18.30;41.10;;;21.93;27.59;100020.22;5094649;28;20225;-78
2022/01/03 00:49:00;;;;;;;0.45;0.45;;;18.30;41.10;;;21.92;27.44;100019.38;5097324;28;20059;-78
2022/01/03 00:51:26;;;;;;;0.50;0.50;;;18.30;41.10;;;21.93;27.70;100009.56;5081640;28;20048;-78
2022/01/03 00:53:52;;;;;;;0.60;0.60;;;18.30;41.10;;;21.93;27.50;100005.09;5116683;28;20052;-78
2022/01/03 00:56:48;;;;;;;0.50;0.50;;;18.30;41.20;;;21.93;27.71;100006.91;5081504;28;20130;-77
2022/01/03 00:59:25;;;;;;;0.50;0.50;;;18.30;41.20;;;21.91;27.56;100004.38;5098155;28;20054;-78
2022/01/03 01:01:55;;;;;;;0.50;0.50;;;18.30;41.10;;;21.92;27.65;100005.22;5081143;28;20063;-78
2022/01/03 01:04:23;;;;;;;0.60;0.60;;;18.30;41.10;;;21.91;27.54;100004.38;5064849;28;20211;-78
2022/01/03 01:06:56;;;;;;;0.60;0.60;;;18.30;41.10;;;21.91;27.49;99999.06;5066042;28;20120;-78
2022/01/03 01:09:25;;;;;;;0.40;0.40;;;18.30;41.10;;;21.94;27.64;100003.31;5079890;28;20055;-78
2022/01/03 01:11:57;;;;;;;0.50;0.50;;;18.30;41.10;;;21.94;27.63;100000.63;5080006;28;20063;-77
2022/01/03 01:14:28;;;;;;;0.63;0.57;;;18.30;41.10;;;21.95;27.56;99999.66;5081412;28;20052;-78
2022/01/03 01:16:55;;;;;;;0.60;0.60;;;18.30;41.10;;;21.95;27.56;100004.97;5080858;28;20399;-77
2022/01/03 01:19:22;;;;;;;0.40;0.40;;;18.30;41.10;;;21.95;27.53;100005.84;5079377;28;20086;-78
2022/01/03 01:21:53;;;;;;;0.50;0.50;;;18.30;41.10;;;21.93;27.64;99999.78;5081624;28;20039;-77
2022/01/03 01:24:22;;;;;;;0.60;0.60;;;18.30;41.10;;;21.94;27.51;100005.97;5080622;28;20399;-78
2022/01/03 01:29:36;;;;;;;0.60;0.60;;;18.30;41.00;;;21.94;27.46;100014.78;5082026;28;20133;-77
2022/01/03 01:32:06;;;;;;;0.50;0.50;;;18.30;41.10;;;21.97;27.52;100013.72;5096336;28;20044;-78
2022/01/03 01:34:34;;;;;;;0.60;0.52;;;18.30;41.60;;;21.96;27.52;100017.31;5097924;28;20394;-78
2022/01/03 01:37:01;;;;;;;0.50;0.50;;;18.30;41.00;;;21.93;27.56;100021.06;5097216;28;20050;-78
2022/01/03 01:39:30;;;;;;;0.50;0.50;;;18.30;41.00;;;21.95;27.43;100029.78;5081034;28;20043;-77
2022/01/03 01:42:03;;;;;;;0.60;0.60;;;18.30;41.00;;;21.96;27.58;100038.63;5081280;28;20047;-77
2022/01/03 01:44:38;;;;;;;0.60;0.60;;;18.30;41.00;;;21.97;27.66;100053.63;5064825;28;20040;-78
2022/01/03 01:47:06;;;;;;;0.50;0.50;;;18.30;41.00;;;21.98;27.53;100063.28;5081081;28;20100;-78
2022/01/03 01:49:44;;;;;;;0.52;0.52;;;18.30;41.00;;;21.97;27.47;100065.13;5080359;28;20043;-78
2022/01/03 01:52:23;;;;;;;0.50;0.50;;;18.30;41.00;;;21.96;27.60;100068.75;5080609;28;20104;-78
2022/01/03 01:55:00;;;;;;;0.50;0.50;;;18.30;41.00;;;21.97;27.56;100075.75;5081301;28;20113;-78
2022/01/03 01:57:58;;;;;;;0.55;0.55;;;18.30;41.00;;;22.00;27.43;100090.63;5079833;28;20047;-78
2022/01/03 02:00:34;;;;;;;0.60;0.60;;;18.30;41.00;;;22.01;27.62;100093.19;5080429;28;20047;-77
2022/01/03 02:03:33;;;;;;;0.60;0.60;;;18.30;41.00;;;21.99;27.51;100100.44;5068172;28;20451;-77
2022/01/03 02:06:18;;;;;;;0.45;0.43;;;18.40;41.00;;;22.01;27.39;100110.97;5097214;28;20047;-78
2022/01/03 02:09:10;;;;;;;0.38;0.38;;;18.40;41.00;;;21.99;27.56;100124.41;5080346;28;20051;-78
2022/01/03 02:11:54;;;;;;;0.40;0.40;;;18.40;41.00;;;21.94;27.68;100118.59;5080446;28;20042;-78
2022/01/03 02:14:26;;;;;;;0.60;0.60;;;18.40;41.00;;;22.00;27.56;100144.75;5076887;28;20046;-78
2022/01/03 02:16:54;;;;;;;0.70;0.70;;;18.40;41.00;;;22.00;27.55;100133.22;5096654;28;20479;-78
2022/01/03 02:19:22;;;;;;;0.57;0.57;;;18.40;41.00;;;22.00;27.43;100149.19;5096839;28;20039;-77
2022/01/03 02:21:48;;;;;;;0.50;0.50;;;18.40;41.00;;;21.97;27.62;100149.47;5079367;28;20134;-78
2022/01/03 02:24:20;;;;;;;0.60;0.60;;;18.40;41.00;;;21.99;27.44;100150.19;5080722;28;20097;-78
2022/01/03 02:26:47;;;;;;;0.50;0.50;;;18.40;41.10;;;21.98;27.51;100159.97;5096552;28;20052;-78
2022/01/03 02:29:14;;;;;;;0.45;0.45;;;18.40;41.10;;;22.00;27.53;100173.16;5063350;28;20475;-78
2022/01/03 02:31:39;;;;;;;0.50;0.50;;;18.40;41.10;;;21.99;27.41;100174.13;5079776;28;20050;-78
2022/01/03 02:34:05;;;;;;;0.50;0.50;;;18.40;41.10;;;22.00;27.62;100178.47;5080030;28;20130;-77
2022/01/03 02:36:33;;;;;;;0.50;0.50;;;18.40;41.10;;;21.99;27.69;100182.97;5078588;28;20040;-78
2022/01/03 02:39:00;;;;;;;1.02;0.63;;;18.40;41.10;;;22.02;27.63;100185.38;5079536;28;20392;-77
2022/01/03 02:41:26;;;;;;;0.60;0.60;;;18.40;41.10;;;22.00;27.40;100192.66;5079529;28;20481;-78
2022/01/03 02:43:55;;;;;;;0.50;0.50;;;18.40;41.10;;;22.01;27.64;100196.16;5096711;28;20067;-78
2022/01/03 02:46:21;;;;;;;0.50;0.50;;;18.40;41.10;;;22.00;27.47;100190.00;5095478;28;20479;-77
2022/01/03 02:48:47;;;;;;;0.50;0.50;;;18.40;41.00;;;22.00;27.61;100190.00;5079428;28;20074;-78
2022/01/03 02:51:14;;;;;;;0.52;0.50;;;18.40;41.00;;;22.02;27.64;100201.38;5079467;28;20044;-78
2022/01/03 02:53:41;;;;;;;0.75;0.60;;;18.40;41.00;;;22.02;27.63;100198.69;5079288;28;20142;-78
2022/01/03 02:56:07;;;;;;;0.60;0.60;;;18.40;41.00;;;22.02;27.69;100193.38;5079069;28;20050;-78
2022/01/03 02:58:32;;;;;;;0.68;0.68;;;18.40;41.00;;;22.03;27.55;100210.19;5096140;28;20047;-77
2022/01/03 03:00:59;;;;;;;0.50;0.50;;;18.40;41.00;;;22.05;27.58;100208.25;5096179;28;20088;-78
2022/01/03 03:03:30;;;;;;;0.47;0.47;;;18.40;41.00;;;22.05;27.54;100212.72;5080332;28;20062;-78
2022/01/03 03:06:01;;;;;;;0.70;0.70;;;18.40;41.00;;;21.99;27.52;100201.59;5096008;28;20514;-77
2022/01/03 03:08:28;;;;;;;;;;;18.40;41.00;;;22.14;27.46;100218.22;5080492;28;20073;-78
2022/01/03 03:10:54;;;;;;;0.43;0.40;;;18.40;41.00;;;22.06;27.47;100203.78;5078967;28;19915;-78
2022/01/03 03:13:22;;;;;;;0.55;0.55;;;18.40;41.00;;;22.07;27.58;100213.47;5096020;28;20046;-78
2022/01/03 03:15:49;;;;;;;0.63;0.60;;;18.40;41.00;;;22.00;27.60;100203.31;5079238;28;20047;-78
2022/01/03 03:18:16;;;;;;;0.63;0.63;;;18.40;41.00;;;22.02;27.63;100211.19;5096074;28;20119;-78
2022/01/03 03:20:43;;;;;;;0.50;0.50;;;18.40;41.00;;;22.02;27.37;100214.69;5078870;28;20559;-78
2022/01/03 03:23:09;;;;;;;0.50;0.50;;;18.40;41.00;;;22.05;27.51;100224.22;5079440;28;20898;-78
2022/01/03 03:25:36;;;;;;;0.52;0.52;;;18.40;41.00;;;21.97;27.65;100206.19;5079466;28;20073;-78
2022/01/03 03:28:13;;;;;;;0.50;0.50;;;18.40;41.00;;;22.01;27.59;100210.31;5079164;28;20044;-78
2022/01/03 03:30:47;;;;;;;0.50;0.50;;;18.40;41.00;;;22.00;27.52;100208.63;5079357;28;20471;-78
2022/01/03 03:33:22;;;;;;;0.50;0.50;;;18.40;41.00;;;21.98;27.66;100205.22;5096097;28;20085;-78
2022/01/03 03:35:53;;;;;;;0.45;0.45;;;18.40;41.00;;;21.99;27.52;100209.56;5079986;28;20142;-78
2022/01/03 03:38:25;;;;;;;0.57;0.57;;;18.40;41.00;;;22.02;27.70;100216.50;5095441;28;20044;-78
2022/01/03 03:40:57;;;;;;;0.60;0.60;;;18.40;41.00;;;22.05;27.55;100218.91;5092942;28;20044;-78
2022/01/03 03:43:24;;;;;;;0.68;0.52;;;18.40;41.00;;;22.06;27.81;100212.63;5078934;28;20047;-78
2022/01/03 03:45:51;;;;;;;0.60;0.60;;;18.50;41.00;;;22.06;27.54;100209.97;5078692;28;20051;-78
2022/01/03 03:48:18;;;;;;;0.60;0.60;;;18.40;40.90;;;22.06;27.65;100217.09;5077093;28;20055;-78
2022/01/03 03:50:46;;;;;;;0.68;0.68;;;18.40;40.90;;;22.08;27.69;100218.66;5094870;28;20069;-78
2022/01/03 03:53:13;;;;;;;0.50;0.50;;;18.50;40.90;;;22.11;27.58;100220.25;5078825;28;20081;-78
2022/01/03 03:55:39;;;;;;;0.50;0.50;;;18.50;40.80;;;22.11;27.68;100215.78;5077467;28;20071;-78
2022/01/03 03:58:07;;;;;;;0.50;0.50;;;18.50;40.80;;;22.12;27.65;100220.16;5093416;28;20040;-78
2022/01/03 04:00:35;;;;;;;0.57;0.50;;;18.50;40.80;;;22.15;27.59;100222.56;5078666;28;20049;-78
2022/01/03 04:03:06;;;;;;;0.50;0.50;;;18.60;40.80;;;22.18;27.42;100221.47;5095371;28;20047;-78
2022/01/03 04:05:32;;;;;;;0.50;0.50;;;18.60;40.80;;;22.19;27.43;100224.03;5078787;28;20059;-78
2022/01/03 04:07:58;;;;;;;0.52;0.50;;;18.60;40.70;;;22.19;27.50;100210.72;5077837;28;20040;-78
2022/01/03 04:10:24;;;;;;;0.50;0.50;;;18.60;40.70;;;22.20;27.50;100209.75;5093310;28;20051;-78
2022/01/03 04:12:51;;;;;;;0.75;0.50;;;18.70;40.60;;;22.26;27.60;100218.22;5077770;28;20048;-78
2022/01/03 04:15:18;;;;;;;0.50;0.50;;;18.70;40.60;;;22.27;27.44;100220.78;5094360;28;20059;-78
2022/01/03 04:17:45;;;;;;;0.73;0.57;;;18.70;40.60;;;22.29;27.31;100212.69;5058241;28;20052;-78
2022/01/03 04:20:16;;;;;;;0.73;0.55;;;18.70;40.50;;;22.27;27.57;100209.25;5062661;28;20047;-78
2022/01/03 04:22:42;;;;;;;0.40;0.40;;;18.80;40.60;;;22.32;27.31;100221.31;5094436;28;20055;-78
2022/01/03 04:25:09;;;;;;;0.50;0.50;;;18.70;40.50;;;22.32;27.27;100215.97;5113038;28;20044;-78
2022/01/03 04:27:35;;;;;;;0.55;0.55;;;18.80;40.50;;;22.34;27.51;100216.69;5077983;28;20044;-78
2022/01/03 04:30:01;;;;;;;0.50;0.50;;;18.80;40.50;;;22.35;27.32;100209.53;5076232;28;20395;-78
2022/01/03 04:32:27;;;;;;;0.47;0.47;;;18.80;40.40;;;22.38;27.30;100222.63;5077739;28;20044;-78
2022/01/03 04:34:53;;;;;;;0.57;0.43;;;18.80;40.40;;;22.36;27.34;100205.91;5094602;28;20070;-78
2022/01/03 04:37:19;;;;;;;0.40;0.40;;;18.80;40.40;;;22.39;27.31;100222.50;5077885;28;20195;-78
2022/01/03 04:39:45;;;;;;;0.75;0.70;;;18.80;40.40;;;22.42;27.49;100216.09;5075781;28;20044;-78
2022/01/03 04:42:11;;;;;;;0.57;0.57;;;18.80;40.30;;;22.41;27.24;100209.06;5078269;28;20055;-78
2022/01/03 04:44:37;;;;;;;0.57;0.57;;;18.90;40.40;;;22.41;27.28;100211.75;5094672;28;20058;-78
2022/01/03 04:47:03;;;;;;;0.43;0.43;;;18.90;40.40;;;22.45;27.17;100220.31;5094963;28;20043;-78
2022/01/03 04:49:29;;;;;;;0.50;0.50;;;18.90;40.30;;;22.48;27.28;100215.59;5094810;28;20063;-78
2022/01/03 04:51:55;;;;;;;0.40;0.40;;;18.90;40.30;;;22.48;27.41;100218.28;5095086;28;20079;-78
2022/01/03 04:54:21;;;;;;;0.50;0.50;;;18.90;40.30;;;22.50;27.34;100210.16;5078413;28;20394;-78
2022/01/03 04:56:48;;;;;;;0.50;0.50;;;18.90;40.30;;;22.49;27.26;100209.31;5095291;28;20122;-78
2022/01/03 04:59:14;;;;;;;0.68;0.50;;;18.90;40.30;;;22.52;27.20;100214.41;5077363;28;20056;-78
2022/01/03 05:01:40;;;;;;;0.50;0.50;;;18.90;40.30;;;22.50;27.34;100216.34;5077425;28;20075;-78
2022/01/03 05:04:06;;;;;;;0.60;0.50;;;19.00;40.30;;;22.52;27.35;100211.75;5078037;28;20480;-78
2022/01/03 05:06:32;;;;;;;0.63;0.60;;;19.00;40.30;;;22.55;27.28;100205.31;5094742;28;20042;-78
2022/01/03 05:08:58;;;;;;;0.40;0.40;;;19.00;40.20;;;22.52;27.29;100201.09;5077266;28;20085;-78
2022/01/03 05:11:24;;;;;;;0.55;0.55;;;19.00;40.20;;;22.55;27.16;100205.31;5077123;28;20052;-78
2022/01/03 05:13:50;;;;;;;0.50;0.50;;;19.00;40.20;;;22.55;27.13;100208.84;5094828;28;20088;-77
2022/01/03 05:16:16;;;;;;;0.50;0.50;;;19.00;40.20;;;22.55;27.17;100202.66;5061428;28;20050;-78
2022/01/03 05:18:42;;;;;;;0.50;0.50;;;19.00;40.10;;;22.58;27.28;100205.91;5077757;28;20044;-78
2022/01/03 05:21:09;;;;;;;0.52;0.52;;;19.00;40.10;;;22.58;27.05;100208.56;5059744;28;20051;-78
2022/01/03 05:23:37;;;;;;;0.55;0.55;;;19.10;40.10;;;22.62;27.15;100197.69;5077754;28;20048;-78
2022/01/03 05:26:04;;;;;;;0.63;0.60;;;19.10;40.10;;;22.62;27.08;100197.69;5094419;28;20048;-78
2022/01/03 05:28:30;;;;;;;0.57;0.43;;;19.10;40.10;;;22.63;27.23;100205.56;5061052;28;20539;-78
2022/01/03 05:30:57;;;;;;;0.60;0.60;;;19.10;40.10;;;22.63;27.19;100202.88;5077291;28;20554;-78
2022/01/03 05:33:23;;;;;;;0.50;0.50;;;19.10;40.10;;;22.66;26.99;100202.66;5077768;28;20406;-78
2022/01/03 05:35:49;;;;;;;1.30;0.68;;;19.10;40.10;;;22.69;26.97;100204.25;5079870;28;20039;-78
2022/01/03 05:38:16;;;;;;;0.85;0.70;;;19.10;40.10;;;22.67;27.04;100203.50;5080708;28;20051;-78
2022/01/03 05:40:42;;;;;;;0.52;0.52;;;19.10;40.10;;;22.67;27.03;100215.03;5063986;28;20124;-78
2022/01/03 05:43:10;;;;;;;0.63;0.55;;;19.10;40.10;;;22.68;27.13;100203.38;5080753;28;20039;-78
2022/01/03 05:45:38;;;;;;;0.55;0.55;;;19.10;40.10;;;22.68;27.11;100206.03;5080802;28;20487;-78
2022/01/03 05:48:06;;;;;;;0.40;0.40;;;19.10;40.00;;;22.71;27.08;100204.97;5081064;28;20089;-78
2022/01/03 05:50:32;;;;;;;0.43;0.40;;;19.10;40.00;;;22.73;27.02;100214.50;5096716;28;20040;-78
2022/01/03 05:52:58;;;;;;;0.70;0.70;;;19.20;40.00;;;22.73;26.95;100200.34;5079289;28;20052;-78
2022/01/03 05:55:24;;;;;;;0.40;0.40;;;19.20;40.00;;;22.75;27.17;100207.25;5080232;28;20039;-78
2022/01/03 05:57:50;;;;;;;0.45;0.45;;;19.20;40.00;;;22.77;27.07;100220.47;5096387;28;20059;-83
2022/01/03 06:00:23;;;;;;;0.50;0.50;;;19.20;39.90;;;22.77;26.71;100209.81;5079742;28;20518;-78
2022/01/03 06:02:53;;;;;;;0.63;0.60;;;19.20;39.90;;;22.80;26.96;100227.34;5097530;28;20445;-79
2022/01/03 06:05:32;;;;;;;0.40;0.40;;;19.20;39.80;;;22.83;27.08;100227.13;5097430;28;20055;-78
2022/01/03 06:07:59;;;;;;;0.60;0.60;;;19.30;39.90;;;22.82;26.96;100222.75;5081017;28;20347;-78
2022/01/03 06:10:27;;;;;;;0.40;0.40;;;19.30;39.90;;;22.82;26.90;100222.75;5062225;28;20101;-78
2022/01/03 06:12:53;;;;;;;0.55;0.50;;;19.30;39.90;;;22.86;27.16;100235.72;5079885;28;20047;-78
2022/01/03 06:15:24;;;;;;;0.40;0.40;;;19.30;39.90;;;22.84;26.96;100232.31;5062533;28;20048;-78
2022/01/03 06:17:52;;;;;;;0.60;0.60;;;19.30;39.90;;;22.83;26.80;100219.13;5079958;28;20493;-78
2022/01/03 06:20:19;;;;;;;0.60;0.55;;;19.30;39.90;;;22.85;27.09;100228.66;5078374;28;20086;-78
2022/01/03 06:22:46;;;;;;;0.60;0.60;;;19.30;39.80;;;22.86;26.83;100224.22;5079632;28;20574;-78
2022/01/03 06:25:12;;;;;;;0.70;0.70;;;19.30;39.80;;;22.88;26.77;100225.75;5078562;28;20040;-78
2022/01/03 06:27:39;;;;;;;0.57;0.50;;;19.30;39.80;;;22.91;26.99;100232.69;5059694;28;20541;-78
2022/01/03 06:30:08;;;;;;;0.50;0.50;;;19.30;39.80;;;22.90;26.79;100238.97;5079790;28;20048;-78
2022/01/03 06:32:36;;;;;;;0.60;0.60;;;19.30;39.80;;;22.90;26.90;100226.50;5080267;28;20039;-78
2022/01/03 06:35:02;;;;;;;0.60;0.60;;;19.40;39.80;;;22.91;26.97;100224.69;5080414;28;20048;-78
2022/01/03 06:37:28;;;;;;;0.55;0.50;;;19.40;39.80;;;22.90;27.03;100228.31;5079623;28;20040;-78
2022/01/03 06:40:05;;;;;;;0.55;0.55;;;19.40;39.80;;;22.94;27.08;100235.09;5080646;28;20479;-78
2022/01/03 06:42:32;;;;;;;0.43;0.43;;;19.40;39.80;;;22.95;26.89;100231.44;5079820;28;20043;-78
2022/01/03 06:44:58;;;;;;;0.70;0.63;;;19.40;39.80;;;22.96;26.77;100230.50;5079005;28;20048;-78
2022/01/03 06:47:25;;;;;;;0.50;0.50;;;19.40;39.80;;;22.97;26.85;100240.19;5077614;28;20044;-78
2022/01/03 06:49:51;;;;;;;0.47;0.47;;;19.40;39.70;;;22.97;26.72;100234.88;5079548;28;20079;-78
2022/01/03 06:52:17;;;;;;;0.85;0.70;;;19.40;39.70;;;22.97;26.73;100220.66;5079228;28;20053;-78
2022/01/03 06:54:43;;;;;;;0.50;0.50;;;19.40;39.70;;;23.00;26.73;100231.09;5079386;28;20407;-78
2022/01/03 06:57:10;;;;;;;0.50;0.50;;;19.40;39.60;;;23.01;26.70;100230.97;5079250;28;20070;-78
2022/01/03 06:59:37;;;;;;;0.55;0.52;;;19.50;39.60;;;23.03;26.68;100236.19;5093258;28;20530;-80
2022/01/03 07:02:05;;;;;;;0.73;0.60;;;19.50;39.70;;;23.05;26.86;100243.06;5061361;28;20082;-80
2022/01/03 07:04:31;;;;;;;0.50;0.50;;;19.50;39.80;;;23.06;26.78;100236.81;5062360;28;20179;-79
2022/01/03 07:06:56;;;;;;;0.43;0.40;;;19.50;39.80;;;23.05;26.75;100232.41;5095705;28;20504;-78
2022/01/03 07:09:22;;;;;;;0.57;0.57;;;19.60;39.70;;;23.06;26.77;100238.59;5113095;28;20100;-78
2022/01/03 07:11:48;;;;;;;0.50;0.50;;;19.50;39.80;;;23.07;26.82;100234.97;5078712;28;20048;-80
2022/01/03 07:19:46;;;;;;;0.60;0.60;;;19.50;39.90;;;23.07;26.72;100248.31;5114011;28;20126;-79
2022/01/03 07:22:12;;;;;;;1.45;0.70;;;19.60;39.90;;;23.11;27.01;100249.78;5095570;28;20463;-79
2022/01/03 07:24:39;;;;;;;0.85;0.60;;;19.60;39.80;;;23.10;26.86;100248.06;5078707;28;20058;-79
2022/01/03 07:27:11;;;;;;;1.35;0.60;;;19.50;39.80;;;23.09;26.91;100246.41;5078842;28;20176;-79
2022/01/03 07:29:37;;;;;;;0.85;0.60;;;19.50;39.80;;;23.09;26.88;100254.41;5095641;28;20054;-79
2022/01/03 07:32:04;;;;;;;0.70;0.60;;;19.50;39.80;;;23.10;27.21;100256.94;5078647;28;20054;-79
2022/01/03 07:34:29;;;;;;;1.58;0.52;;;19.50;40.00;;;23.08;26.86;100256.19;5078355;28;20047;-79
2022/01/03 07:36:55;;;;;;;1.85;0.70;;;19.50;39.80;;;23.13;26.94;100250.50;5060146;28;20055;-79
2022/01/03 07:39:21;;;;;;;1.30;0.60;;;19.50;39.80;;;23.13;26.92;100258.50;5078663;28;20085;-79
2022/01/03 07:41:47;;;;;;;0.85;0.60;;;19.50;39.80;;;23.15;26.88;100263.72;5061899;28;20070;-79
2022/01/03 07:44:13;;;;;;;1.63;0.70;;;19.50;39.80;;;23.13;26.62;100255.81;5095664;28;20471;-79
2022/01/03 07:46:39;;;;;;;1.70;0.57;;;19.60;39.90;;;23.13;26.71;100264.66;5077610;28;20051;-79
2022/01/03 07:49:05;;;;;;;0.65;0.65;;;19.60;39.80;;;23.16;26.97;100260.09;5095263;28;20181;-79
2022/01/03 07:51:31;;;;;;;1.50;0.88;;;19.60;39.80;;;23.16;26.88;100252.09;5078168;28;20048;-79
2022/01/03 07:53:57;;;;;;;1.55;0.63;;;19.60;39.70;;;23.17;26.94;100261.75;5095240;28;20388;-79
2022/01/03 07:56:22;;;;;;;0.63;0.63;;;19.60;39.70;;;23.15;26.86;100251.22;5113187;28;20475;-79
2022/01/03 07:58:49;;;;;;;1.30;0.60;;;19.60;39.70;;;23.20;26.76;100265.00;5094391;28;20050;-79
2022/01/03 08:01:15;;;;;;;0.50;0.50;;;19.60;39.70;;;23.22;26.93;100262.22;5078421;28;20572;-79
2022/01/03 08:03:40;;;;;;;0.65;0.60;;;19.60;39.70;;;23.19;27.01;100254.47;5077559;28;20082;-79
2022/01/03 08:06:09;;;;;;;0.80;0.80;;;19.60;39.70;;;23.17;26.72;100249.28;5061653;28;20082;-79
2022/01/03 08:08:36;;;;;;;1.35;0.77;;;19.60;39.70;;;23.17;26.72;100248.41;5076279;28;20050;-79
2022/01/03 08:11:02;;;;;;;0.60;0.60;;;19.60;39.70;;;23.23;26.70;100263.94;5061238;28;20047;-79
2022/01/03 08:13:28;;;;;;;0.50;0.50;;;19.60;39.70;;;23.21;26.78;100261.41;5077926;28;20048;-80
2022/01/03 08:15:54;;;;;;;1.00;0.60;;;19.70;39.70;;;23.21;26.58;100266.72;5077773;28;20050;-79
2022/01/03 08:18:20;;;;;;;1.08;0.60;;;19.70;39.70;;;23.22;26.83;100257.75;5092789;28;20052;-79
2022/01/03 08:20:46;;;;;;;1.08;0.60;;;19.70;39.60;;;23.23;26.80;100250.59;5076750;28;20486;-79
2022/01/03 08:23:11;;;;;;;0.73;0.68;;;19.70;39.60;;;23.27;26.67;100268.03;5076660;28;20060;-79
2022/01/03 08:25:37;;;;;;;0.88;0.70;;;19.70;39.60;;;23.27;26.85;100273.38;5094563;28;20051;-80
2022/01/03 08:28:08;;;;;;;0.63;0.63;;;19.70;39.60;;;23.27;26.57;100260.03;5094719;28;20058;-77
2022/01/03 08:30:35;;;;;;;0.73;0.73;;;19.70;39.50;;;23.30;26.72;100257.13;5094438;28;20043;-79
2022/01/03 08:33:03;;;;;;;1.65;0.75;;;19.70;39.50;;;23.30;26.68;100255.31;5077507;28;20048;-78
